sensor_id;sensor_type;location;lat;lon;timestamp;temperature;humidity
63966;DHT22;50151;52.030;5.350;2023-07-22T00:00:38;14.40;99.90
63966;DHT22;50151;52.030;5.350;2023-07-22T00:03:05;14.40;99.90
63966;DHT22;50151;52.030;5.350;2023-07-22T00:05:32;14.30;99.90
63966;DHT22;50151;52.030;5.350;2023-07-22T00:07:59;14.30;99.90
63966;DHT22;50151;52.030;5.350;2023-07-22T00:10:25;14.30;99.90
63966;DHT22;50151;52.030;5.350;2023-07-22T00:12:52;14.20;99.90
63966;DHT22;50151;52.030;5.350;2023-07-22T00:15:19;14.20;99.90
63966;DHT22;50151;52.030;5.350;2023-07-22T00:17:47;14.10;99.90
63966;DHT22;50151;52.030;5.350;2023-07-22T00:20:13;14.20;99.90
63966;DHT22;50151;52.030;5.350;2023-07-22T00:22:40;14.10;99.90
63966;DHT22;50151;52.030;5.350;2023-07-22T00:25:11;14.20;99.90
63966;DHT22;50151;52.030;5.350;2023-07-22T00:27:39;14.10;99.90
63966;DHT22;50151;52.030;5.350;2023-07-22T00:30:07;14.10;99.90
63966;DHT22;50151;52.030;5.350;2023-07-22T00:32:35;14.10;99.90
63966;DHT22;50151;52.030;5.350;2023-07-22T00:35:05;14.10;99.90
63966;DHT22;50151;52.030;5.350;2023-07-22T00:37:36;14.10;99.90
63966;DHT22;50151;52.030;5.350;2023-07-22T00:40:03;14.10;99.90
63966;DHT22;50151;52.030;5.350;2023-07-22T00:42:39;14.10;99.90
63966;DHT22;50151;52.030;5.350;2023-07-22T00:45:06;14.10;99.90
63966;DHT22;50151;52.030;5.350;2023-07-22T00:47:36;14.10;99.90
63966;DHT22;50151;52.030;5.350;2023-07-22T00:50:05;14.10;99.90
63966;DHT22;50151;52.030;5.350;2023-07-22T00:52:36;14.20;99.90
63966;DHT22;50151;52.030;5.350;2023-07-22T00:55:05;14.10;99.90
63966;DHT22;50151;52.030;5.350;2023-07-22T00:57:32;14.10;99.90
63966;DHT22;50151;52.030;5.350;2023-07-22T00:59:58;14.10;99.90
63966;DHT22;50151;52.030;5.350;2023-07-22T01:02:25;14.00;99.90
63966;DHT22;50151;52.030;5.350;2023-07-22T01:04:52;14.00;99.90
63966;DHT22;50151;52.030;5.350;2023-07-22T01:07:19;14.00;99.90
63966;DHT22;50151;52.030;5.350;2023-07-22T01:09:46;14.00;99.90
63966;DHT22;50151;52.030;5.350;2023-07-22T01:12:13;14.00;99.90
63966;DHT22;50151;52.030;5.350;2023-07-22T01:14:41;14.00;99.90
63966;DHT22;50151;52.030;5.350;2023-07-22T01:17:09;14.00;99.90
63966;DHT22;50151;52.030;5.350;2023-07-22T01:19:37;14.00;99.90
63966;DHT22;50151;52.030;5.350;2023-07-22T01:22:05;14.00;99.90
63966;DHT22;50151;52.030;5.350;2023-07-22T01:24:35;13.90;99.90
63966;DHT22;50151;52.030;5.350;2023-07-22T01:27:02;13.90;99.90
63966;DHT22;50151;52.030;5.350;2023-07-22T01:29:30;13.90;99.90
63966;DHT22;50151;52.030;5.350;2023-07-22T01:31:56;13.80;99.90
63966;DHT22;50151;52.030;5.350;2023-07-22T01:34:23;13.80;99.90
63966;DHT22;50151;52.030;5.350;2023-07-22T01:36:51;13.80;99.90
63966;DHT22;50151;52.030;5.350;2023-07-22T01:39:18;13.70;99.90
63966;DHT22;50151;52.030;5.350;2023-07-22T01:41:45;13.70;99.90
63966;DHT22;50151;52.030;5.350;2023-07-22T01:44:12;13.70;99.90
63966;DHT22;50151;52.030;5.350;2023-07-22T01:46:38;13.60;99.90
63966;DHT22;50151;52.030;5.350;2023-07-22T01:49:10;13.60;99.90
63966;DHT22;50151;52.030;5.350;2023-07-22T01:51:39;13.60;99.90
63966;DHT22;50151;52.030;5.350;2023-07-22T01:54:09;13.60;99.90
63966;DHT22;50151;52.030;5.350;2023-07-22T01:56:37;13.60;99.90
63966;DHT22;50151;52.030;5.350;2023-07-22T01:59:04;13.60;99.90
63966;DHT22;50151;52.030;5.350;2023-07-22T02:01:32;13.60;99.90
63966;DHT22;50151;52.030;5.350;2023-07-22T02:03:59;13.50;99.90
63966;DHT22;50151;52.030;5.350;2023-07-22T02:06:27;13.50;99.90
63966;DHT22;50151;52.030;5.350;2023-07-22T02:08:56;13.50;99.90
63966;DHT22;50151;52.030;5.350;2023-07-22T02:11:22;13.40;99.90
63966;DHT22;50151;52.030;5.350;2023-07-22T02:13:49;13.40;99.90
63966;DHT22;50151;52.030;5.350;2023-07-22T02:16:16;13.40;99.90
63966;DHT22;50151;52.030;5.350;2023-07-22T02:18:43;13.40;99.90
63966;DHT22;50151;52.030;5.350;2023-07-22T02:21:10;13.40;99.90
63966;DHT22;50151;52.030;5.350;2023-07-22T02:23:36;13.30;99.90
63966;DHT22;50151;52.030;5.350;2023-07-22T02:26:03;13.30;99.90
63966;DHT22;50151;52.030;5.350;2023-07-22T02:28:30;13.30;99.90
63966;DHT22;50151;52.030;5.350;2023-07-22T02:31:01;13.30;99.90
63966;DHT22;50151;52.030;5.350;2023-07-22T02:33:28;13.30;99.90
63966;DHT22;50151;52.030;5.350;2023-07-22T02:35:55;13.30;99.90
63966;DHT22;50151;52.030;5.350;2023-07-22T02:38:22;13.20;99.90
63966;DHT22;50151;52.030;5.350;2023-07-22T02:40:49;13.20;99.90
63966;DHT22;50151;52.030;5.350;2023-07-22T02:43:15;13.20;99.90
63966;DHT22;50151;52.030;5.350;2023-07-22T02:45:42;13.20;99.90
63966;DHT22;50151;52.030;5.350;2023-07-22T02:48:09;13.10;99.90
63966;DHT22;50151;52.030;5.350;2023-07-22T02:50:36;13.10;99.90
63966;DHT22;50151;52.030;5.350;2023-07-22T02:53:03;13.10;99.90
63966;DHT22;50151;52.030;5.350;2023-07-22T02:55:30;13.10;99.90
63966;DHT22;50151;52.030;5.350;2023-07-22T02:57:57;13.10;99.90
63966;DHT22;50151;52.030;5.350;2023-07-22T03:00:23;13.10;99.90
63966;DHT22;50151;52.030;5.350;2023-07-22T03:02:54;13.00;99.90
63966;DHT22;50151;52.030;5.350;2023-07-22T03:05:28;13.00;99.90
63966;DHT22;50151;52.030;5.350;2023-07-22T03:07:55;13.00;99.90
63966;DHT22;50151;52.030;5.350;2023-07-22T03:10:22;13.00;99.90
63966;DHT22;50151;52.030;5.350;2023-07-22T03:12:49;13.00;99.90
63966;DHT22;50151;52.030;5.350;2023-07-22T03:15:16;13.00;99.90
63966;DHT22;50151;52.030;5.350;2023-07-22T03:17:45;13.00;99.90
63966;DHT22;50151;52.030;5.350;2023-07-22T03:20:12;13.00;99.90
63966;DHT22;50151;52.030;5.350;2023-07-22T03:22:43;13.00;99.90
63966;DHT22;50151;52.030;5.350;2023-07-22T03:25:11;12.90;99.90
63966;DHT22;50151;52.030;5.350;2023-07-22T03:27:39;12.90;99.90
63966;DHT22;50151;52.030;5.350;2023-07-22T03:30:06;12.90;99.90
63966;DHT22;50151;52.030;5.350;2023-07-22T03:32:34;12.90;99.90
63966;DHT22;50151;52.030;5.350;2023-07-22T03:35:01;12.90;99.90
63966;DHT22;50151;52.030;5.350;2023-07-22T03:37:29;12.90;99.90
63966;DHT22;50151;52.030;5.350;2023-07-22T03:39:55;12.90;99.90
63966;DHT22;50151;52.030;5.350;2023-07-22T03:42:22;12.90;99.90
63966;DHT22;50151;52.030;5.350;2023-07-22T03:44:49;12.80;99.90
63966;DHT22;50151;52.030;5.350;2023-07-22T03:47:15;12.80;99.90
63966;DHT22;50151;52.030;5.350;2023-07-22T03:49:42;12.80;99.90
63966;DHT22;50151;52.030;5.350;2023-07-22T03:52:09;12.80;99.90
63966;DHT22;50151;52.030;5.350;2023-07-22T03:54:35;12.80;99.90
63966;DHT22;50151;52.030;5.350;2023-07-22T03:57:02;12.80;99.90
63966;DHT22;50151;52.030;5.350;2023-07-22T03:59:29;12.80;99.90
63966;DHT22;50151;52.030;5.350;2023-07-22T04:01:55;12.70;99.90
63966;DHT22;50151;52.030;5.350;2023-07-22T04:04:22;12.70;99.90
63966;DHT22;50151;52.030;5.350;2023-07-22T04:06:49;12.80;99.90
63966;DHT22;50151;52.030;5.350;2023-07-22T04:09:15;12.80;99.90
63966;DHT22;50151;52.030;5.350;2023-07-22T04:11:42;12.80;99.90
63966;DHT22;50151;52.030;5.350;2023-07-22T04:14:09;12.80;99.90
63966;DHT22;50151;52.030;5.350;2023-07-22T04:16:35;12.80;99.90
63966;DHT22;50151;52.030;5.350;2023-07-22T04:19:02;12.80;99.90
63966;DHT22;50151;52.030;5.350;2023-07-22T04:21:29;12.80;99.90
63966;DHT22;50151;52.030;5.350;2023-07-22T04:23:56;12.80;99.90
63966;DHT22;50151;52.030;5.350;2023-07-22T04:26:22;12.90;99.90
63966;DHT22;50151;52.030;5.350;2023-07-22T04:28:49;12.80;99.90
63966;DHT22;50151;52.030;5.350;2023-07-22T04:31:16;12.90;99.90
63966;DHT22;50151;52.030;5.350;2023-07-22T04:33:42;12.90;99.90
63966;DHT22;50151;52.030;5.350;2023-07-22T04:36:09;13.00;99.90
63966;DHT22;50151;52.030;5.350;2023-07-22T04:38:36;12.90;99.90
63966;DHT22;50151;52.030;5.350;2023-07-22T04:41:03;13.00;99.90
63966;DHT22;50151;52.030;5.350;2023-07-22T04:43:31;13.00;99.90
63966;DHT22;50151;52.030;5.350;2023-07-22T04:45:59;13.00;99.90
63966;DHT22;50151;52.030;5.350;2023-07-22T04:48:26;13.00;99.90
63966;DHT22;50151;52.030;5.350;2023-07-22T04:50:53;13.10;99.90
63966;DHT22;50151;52.030;5.350;2023-07-22T04:53:21;13.10;99.90
63966;DHT22;50151;52.030;5.350;2023-07-22T04:55:49;13.20;99.90
63966;DHT22;50151;52.030;5.350;2023-07-22T04:58:16;13.20;99.90
63966;DHT22;50151;52.030;5.350;2023-07-22T05:00:42;13.20;99.90
63966;DHT22;50151;52.030;5.350;2023-07-22T05:03:10;13.20;99.90
63966;DHT22;50151;52.030;5.350;2023-07-22T05:05:37;13.30;99.90
63966;DHT22;50151;52.030;5.350;2023-07-22T05:08:04;13.30;99.90
63966;DHT22;50151;52.030;5.350;2023-07-22T05:10:30;13.40;99.90
63966;DHT22;50151;52.030;5.350;2023-07-22T05:12:57;13.40;99.90
63966;DHT22;50151;52.030;5.350;2023-07-22T05:15:24;13.50;99.90
63966;DHT22;50151;52.030;5.350;2023-07-22T05:17:51;13.50;99.90
63966;DHT22;50151;52.030;5.350;2023-07-22T05:20:18;13.60;99.90
63966;DHT22;50151;52.030;5.350;2023-07-22T05:22:44;13.70;99.90
63966;DHT22;50151;52.030;5.350;2023-07-22T05:25:11;13.70;99.90
63966;DHT22;50151;52.030;5.350;2023-07-22T05:27:40;13.70;99.90
63966;DHT22;50151;52.030;5.350;2023-07-22T05:30:07;13.80;99.90
63966;DHT22;50151;52.030;5.350;2023-07-22T05:32:52;13.90;99.90
63966;DHT22;50151;52.030;5.350;2023-07-22T05:35:19;14.00;99.90
63966;DHT22;50151;52.030;5.350;2023-07-22T05:37:46;14.00;99.90
63966;DHT22;50151;52.030;5.350;2023-07-22T05:40:13;14.10;99.90
63966;DHT22;50151;52.030;5.350;2023-07-22T05:42:40;14.20;99.90
63966;DHT22;50151;52.030;5.350;2023-07-22T05:45:08;14.20;99.90
63966;DHT22;50151;52.030;5.350;2023-07-22T05:47:35;14.30;99.90
63966;DHT22;50151;52.030;5.350;2023-07-22T05:50:05;14.30;99.90
63966;DHT22;50151;52.030;5.350;2023-07-22T05:52:33;14.40;99.90
63966;DHT22;50151;52.030;5.350;2023-07-22T05:54:59;14.50;99.90
63966;DHT22;50151;52.030;5.350;2023-07-22T05:57:27;14.60;99.90
63966;DHT22;50151;52.030;5.350;2023-07-22T05:59:58;14.60;99.90
63966;DHT22;50151;52.030;5.350;2023-07-22T06:02:50;14.70;99.90
63966;DHT22;50151;52.030;5.350;2023-07-22T06:05:17;14.80;99.90
63966;DHT22;50151;52.030;5.350;2023-07-22T06:07:44;14.80;99.90
63966;DHT22;50151;52.030;5.350;2023-07-22T06:10:10;14.90;99.90
63966;DHT22;50151;52.030;5.350;2023-07-22T06:12:37;15.00;99.90
63966;DHT22;50151;52.030;5.350;2023-07-22T06:15:06;15.00;99.90
63966;DHT22;50151;52.030;5.350;2023-07-22T06:17:33;15.10;99.90
63966;DHT22;50151;52.030;5.350;2023-07-22T06:20:01;15.20;99.90
63966;DHT22;50151;52.030;5.350;2023-07-22T06:22:28;15.20;99.90
63966;DHT22;50151;52.030;5.350;2023-07-22T06:24:54;15.20;99.90
63966;DHT22;50151;52.030;5.350;2023-07-22T06:27:21;15.40;99.90
63966;DHT22;50151;52.030;5.350;2023-07-22T06:29:48;15.40;99.90
63966;DHT22;50151;52.030;5.350;2023-07-22T06:32:15;15.50;99.90
63966;DHT22;50151;52.030;5.350;2023-07-22T06:34:42;15.60;99.90
63966;DHT22;50151;52.030;5.350;2023-07-22T06:37:09;15.70;99.90
63966;DHT22;50151;52.030;5.350;2023-07-22T06:39:35;15.70;99.90
63966;DHT22;50151;52.030;5.350;2023-07-22T06:42:02;15.80;99.90
63966;DHT22;50151;52.030;5.350;2023-07-22T06:44:29;15.90;99.90
63966;DHT22;50151;52.030;5.350;2023-07-22T06:46:57;16.00;99.90
63966;DHT22;50151;52.030;5.350;2023-07-22T06:49:24;16.10;99.90
63966;DHT22;50151;52.030;5.350;2023-07-22T06:51:50;16.20;99.90
63966;DHT22;50151;52.030;5.350;2023-07-22T06:54:18;16.20;99.90
63966;DHT22;50151;52.030;5.350;2023-07-22T06:56:45;16.20;99.90
63966;DHT22;50151;52.030;5.350;2023-07-22T06:59:12;16.40;99.90
63966;DHT22;50151;52.030;5.350;2023-07-22T07:01:38;16.50;99.90
63966;DHT22;50151;52.030;5.350;2023-07-22T07:04:05;16.60;99.90
63966;DHT22;50151;52.030;5.350;2023-07-22T07:06:32;16.50;99.90
63966;DHT22;50151;52.030;5.350;2023-07-22T07:08:59;16.60;99.90
63966;DHT22;50151;52.030;5.350;2023-07-22T07:11:28;16.60;99.90
63966;DHT22;50151;52.030;5.350;2023-07-22T07:13:56;16.50;99.90
63966;DHT22;50151;52.030;5.350;2023-07-22T07:16:27;16.50;99.90
63966;DHT22;50151;52.030;5.350;2023-07-22T07:18:55;16.60;99.90
63966;DHT22;50151;52.030;5.350;2023-07-22T07:21:23;16.70;99.90
63966;DHT22;50151;52.030;5.350;2023-07-22T07:23:50;16.80;99.90
63966;DHT22;50151;52.030;5.350;2023-07-22T07:26:19;16.90;99.90
63966;DHT22;50151;52.030;5.350;2023-07-22T07:28:50;16.90;99.90
63966;DHT22;50151;52.030;5.350;2023-07-22T07:31:17;17.00;99.90
63966;DHT22;50151;52.030;5.350;2023-07-22T07:33:44;16.90;99.90
63966;DHT22;50151;52.030;5.350;2023-07-22T07:36:11;17.00;99.90
63966;DHT22;50151;52.030;5.350;2023-07-22T07:38:38;17.10;99.90
63966;DHT22;50151;52.030;5.350;2023-07-22T07:41:06;17.30;99.90
63966;DHT22;50151;52.030;5.350;2023-07-22T07:43:39;17.50;99.90
63966;DHT22;50151;52.030;5.350;2023-07-22T07:46:27;17.60;99.90
63966;DHT22;50151;52.030;5.350;2023-07-22T07:48:56;17.60;99.90
63966;DHT22;50151;52.030;5.350;2023-07-22T07:51:24;17.60;99.90
63966;DHT22;50151;52.030;5.350;2023-07-22T07:53:54;17.70;99.90
63966;DHT22;50151;52.030;5.350;2023-07-22T07:56:21;17.70;99.90
63966;DHT22;50151;52.030;5.350;2023-07-22T07:58:50;17.80;99.90
63966;DHT22;50151;52.030;5.350;2023-07-22T08:01:17;17.80;99.90
63966;DHT22;50151;52.030;5.350;2023-07-22T08:03:44;17.80;99.90
63966;DHT22;50151;52.030;5.350;2023-07-22T08:06:12;17.90;99.90
63966;DHT22;50151;52.030;5.350;2023-07-22T08:08:39;18.00;99.90
63966;DHT22;50151;52.030;5.350;2023-07-22T08:13:34;18.20;99.90
63966;DHT22;50151;52.030;5.350;2023-07-22T08:16:03;18.20;99.90
63966;DHT22;50151;52.030;5.350;2023-07-22T08:18:31;18.10;99.90
63966;DHT22;50151;52.030;5.350;2023-07-22T08:20:58;18.20;99.90
63966;DHT22;50151;52.030;5.350;2023-07-22T08:23:25;18.40;99.90
63966;DHT22;50151;52.030;5.350;2023-07-22T08:25:53;18.40;99.90
63966;DHT22;50151;52.030;5.350;2023-07-22T08:28:20;18.40;99.90
63966;DHT22;50151;52.030;5.350;2023-07-22T08:30:50;18.50;99.90
63966;DHT22;50151;52.030;5.350;2023-07-22T08:33:17;18.40;99.90
63966;DHT22;50151;52.030;5.350;2023-07-22T08:35:56;18.50;99.90
63966;DHT22;50151;52.030;5.350;2023-07-22T08:38:23;18.70;99.90
63966;DHT22;50151;52.030;5.350;2023-07-22T08:40:50;18.80;99.90
63966;DHT22;50151;52.030;5.350;2023-07-22T08:43:20;18.90;99.90
63966;DHT22;50151;52.030;5.350;2023-07-22T08:45:49;19.10;99.90
63966;DHT22;50151;52.030;5.350;2023-07-22T08:48:18;19.00;99.90
63966;DHT22;50151;52.030;5.350;2023-07-22T08:50:49;18.90;99.90
63966;DHT22;50151;52.030;5.350;2023-07-22T08:53:17;18.90;99.90
63966;DHT22;50151;52.030;5.350;2023-07-22T08:55:46;19.00;99.90
63966;DHT22;50151;52.030;5.350;2023-07-22T08:58:14;19.30;99.90
63966;DHT22;50151;52.030;5.350;2023-07-22T09:00:42;19.10;99.90
63966;DHT22;50151;52.030;5.350;2023-07-22T09:03:09;19.20;99.90
63966;DHT22;50151;52.030;5.350;2023-07-22T09:05:37;19.30;99.90
63966;DHT22;50151;52.030;5.350;2023-07-22T09:08:07;19.30;99.90
63966;DHT22;50151;52.030;5.350;2023-07-22T09:10:35;19.00;99.90
63966;DHT22;50151;52.030;5.350;2023-07-22T09:13:03;19.20;99.90
63966;DHT22;50151;52.030;5.350;2023-07-22T09:15:33;19.40;99.90
63966;DHT22;50151;52.030;5.350;2023-07-22T09:18:01;19.50;99.90
63966;DHT22;50151;52.030;5.350;2023-07-22T09:20:28;19.60;99.90
63966;DHT22;50151;52.030;5.350;2023-07-22T09:22:55;19.40;99.90
63966;DHT22;50151;52.030;5.350;2023-07-22T09:25:37;19.60;99.90
63966;DHT22;50151;52.030;5.350;2023-07-22T09:28:04;19.80;99.90
63966;DHT22;50151;52.030;5.350;2023-07-22T09:30:34;19.70;99.90
63966;DHT22;50151;52.030;5.350;2023-07-22T09:33:03;19.70;99.90
63966;DHT22;50151;52.030;5.350;2023-07-22T09:35:46;19.90;99.90
63966;DHT22;50151;52.030;5.350;2023-07-22T09:38:14;19.80;99.90
63966;DHT22;50151;52.030;5.350;2023-07-22T09:40:44;19.80;99.90
63966;DHT22;50151;52.030;5.350;2023-07-22T09:43:13;19.60;99.90
63966;DHT22;50151;52.030;5.350;2023-07-22T09:45:40;19.70;99.90
63966;DHT22;50151;52.030;5.350;2023-07-22T09:48:09;19.70;99.90
63966;DHT22;50151;52.030;5.350;2023-07-22T09:50:36;19.70;99.90
63966;DHT22;50151;52.030;5.350;2023-07-22T09:53:04;19.80;99.90
63966;DHT22;50151;52.030;5.350;2023-07-22T09:55:32;19.90;99.90
63966;DHT22;50151;52.030;5.350;2023-07-22T09:58:00;20.00;99.90
63966;DHT22;50151;52.030;5.350;2023-07-22T10:00:34;19.60;99.90
63966;DHT22;50151;52.030;5.350;2023-07-22T10:03:03;19.60;99.90
63966;DHT22;50151;52.030;5.350;2023-07-22T10:05:38;19.50;99.90
63966;DHT22;50151;52.030;5.350;2023-07-22T10:08:06;19.70;99.90
63966;DHT22;50151;52.030;5.350;2023-07-22T10:10:35;19.90;99.90
63966;DHT22;50151;52.030;5.350;2023-07-22T10:13:04;19.80;99.90
63966;DHT22;50151;52.030;5.350;2023-07-22T10:15:32;19.70;99.90
63966;DHT22;50151;52.030;5.350;2023-07-22T10:18:03;20.00;99.90
63966;DHT22;50151;52.030;5.350;2023-07-22T10:20:31;20.30;99.90
63966;DHT22;50151;52.030;5.350;2023-07-22T10:23:04;20.30;99.90
63966;DHT22;50151;52.030;5.350;2023-07-22T10:25:31;20.30;99.90
63966;DHT22;50151;52.030;5.350;2023-07-22T10:27:58;20.20;99.90
63966;DHT22;50151;52.030;5.350;2023-07-22T10:30:25;20.10;99.90
63966;DHT22;50151;52.030;5.350;2023-07-22T10:32:52;20.00;99.90
63966;DHT22;50151;52.030;5.350;2023-07-22T10:35:34;20.00;99.90
63966;DHT22;50151;52.030;5.350;2023-07-22T10:38:09;20.10;99.90
63966;DHT22;50151;52.030;5.350;2023-07-22T10:40:52;20.10;99.90
63966;DHT22;50151;52.030;5.350;2023-07-22T10:43:30;20.10;99.90
63966;DHT22;50151;52.030;5.350;2023-07-22T10:46:09;19.80;99.90
63966;DHT22;50151;52.030;5.350;2023-07-22T10:48:38;19.70;99.90
63966;DHT22;50151;52.030;5.350;2023-07-22T10:51:11;19.50;99.90
63966;DHT22;50151;52.030;5.350;2023-07-22T10:53:44;19.50;99.90
63966;DHT22;50151;52.030;5.350;2023-07-22T10:56:21;19.10;99.90
63966;DHT22;50151;52.030;5.350;2023-07-22T11:01:23;19.10;99.90
63966;DHT22;50151;52.030;5.350;2023-07-22T11:04:25;19.20;99.90
63966;DHT22;50151;52.030;5.350;2023-07-22T11:07:41;19.40;99.90
63966;DHT22;50151;52.030;5.350;2023-07-22T11:10:17;19.60;99.90
63966;DHT22;50151;52.030;5.350;2023-07-22T11:12:45;19.60;99.90
63966;DHT22;50151;52.030;5.350;2023-07-22T11:15:15;19.80;99.90
63966;DHT22;50151;52.030;5.350;2023-07-22T11:17:42;19.60;99.90
63966;DHT22;50151;52.030;5.350;2023-07-22T11:20:09;19.40;99.90
63966;DHT22;50151;52.030;5.350;2023-07-22T11:22:39;19.50;99.90
63966;DHT22;50151;52.030;5.350;2023-07-22T11:25:07;19.50;99.90
63966;DHT22;50151;52.030;5.350;2023-07-22T11:27:35;19.70;99.90
63966;DHT22;50151;52.030;5.350;2023-07-22T11:30:03;19.90;99.90
63966;DHT22;50151;52.030;5.350;2023-07-22T11:32:32;20.20;99.90
63966;DHT22;50151;52.030;5.350;2023-07-22T11:34:58;20.70;99.90
63966;DHT22;50151;52.030;5.350;2023-07-22T11:37:27;20.90;99.90
63966;DHT22;50151;52.030;5.350;2023-07-22T11:40:00;20.80;99.90
63966;DHT22;50151;52.030;5.350;2023-07-22T11:42:28;20.40;99.90
63966;DHT22;50151;52.030;5.350;2023-07-22T11:44:56;20.10;99.90
63966;DHT22;50151;52.030;5.350;2023-07-22T11:47:29;19.90;99.90
63966;DHT22;50151;52.030;5.350;2023-07-22T11:49:56;19.80;99.90
63966;DHT22;50151;52.030;5.350;2023-07-22T11:52:23;19.80;99.90
63966;DHT22;50151;52.030;5.350;2023-07-22T11:54:50;19.70;99.90
63966;DHT22;50151;52.030;5.350;2023-07-22T11:57:24;19.50;99.90
63966;DHT22;50151;52.030;5.350;2023-07-22T11:59:54;19.30;99.90
63966;DHT22;50151;52.030;5.350;2023-07-22T12:02:27;19.10;99.90
63966;DHT22;50151;52.030;5.350;2023-07-22T12:05:03;18.90;99.90
63966;DHT22;50151;52.030;5.350;2023-07-22T12:07:33;18.70;99.90
63966;DHT22;50151;52.030;5.350;2023-07-22T12:10:02;18.80;99.90
63966;DHT22;50151;52.030;5.350;2023-07-22T12:12:44;18.40;99.90
63966;DHT22;50151;52.030;5.350;2023-07-22T12:15:15;18.50;99.90
63966;DHT22;50151;52.030;5.350;2023-07-22T12:17:52;18.70;99.90
63966;DHT22;50151;52.030;5.350;2023-07-22T12:20:24;18.60;99.90
63966;DHT22;50151;52.030;5.350;2023-07-22T12:22:53;18.70;99.90
63966;DHT22;50151;52.030;5.350;2023-07-22T12:25:19;18.70;99.90
63966;DHT22;50151;52.030;5.350;2023-07-22T12:27:46;18.90;99.90
63966;DHT22;50151;52.030;5.350;2023-07-22T12:30:13;19.20;99.90
63966;DHT22;50151;52.030;5.350;2023-07-22T12:32:43;19.40;99.90
63966;DHT22;50151;52.030;5.350;2023-07-22T12:35:09;19.60;99.90
63966;DHT22;50151;52.030;5.350;2023-07-22T12:37:36;19.50;99.90
63966;DHT22;50151;52.030;5.350;2023-07-22T12:40:03;19.50;99.90
63966;DHT22;50151;52.030;5.350;2023-07-22T12:42:32;19.40;99.90
63966;DHT22;50151;52.030;5.350;2023-07-22T12:44:59;19.50;99.90
63966;DHT22;50151;52.030;5.350;2023-07-22T12:47:25;19.60;99.90
63966;DHT22;50151;52.030;5.350;2023-07-22T12:49:52;19.60;99.90
63966;DHT22;50151;52.030;5.350;2023-07-22T12:52:19;19.70;99.90
63966;DHT22;50151;52.030;5.350;2023-07-22T12:54:46;20.00;99.90
63966;DHT22;50151;52.030;5.350;2023-07-22T12:57:12;19.90;99.90
63966;DHT22;50151;52.030;5.350;2023-07-22T12:59:39;19.90;99.90
63966;DHT22;50151;52.030;5.350;2023-07-22T13:02:07;19.70;99.90
63966;DHT22;50151;52.030;5.350;2023-07-22T13:04:34;19.60;99.90
63966;DHT22;50151;52.030;5.350;2023-07-22T13:07:00;19.50;99.90
63966;DHT22;50151;52.030;5.350;2023-07-22T13:09:27;19.50;99.90
63966;DHT22;50151;52.030;5.350;2023-07-22T13:11:54;19.20;99.90
63966;DHT22;50151;52.030;5.350;2023-07-22T13:14:20;19.20;99.90
63966;DHT22;50151;52.030;5.350;2023-07-22T13:16:47;19.10;99.90
63966;DHT22;50151;52.030;5.350;2023-07-22T13:19:14;19.00;99.90
63966;DHT22;50151;52.030;5.350;2023-07-22T13:21:41;19.00;99.90
63966;DHT22;50151;52.030;5.350;2023-07-22T13:24:07;19.00;99.90
63966;DHT22;50151;52.030;5.350;2023-07-22T13:26:34;18.80;99.90
63966;DHT22;50151;52.030;5.350;2023-07-22T13:29:06;18.60;99.90
63966;DHT22;50151;52.030;5.350;2023-07-22T13:31:32;18.60;99.90
63966;DHT22;50151;52.030;5.350;2023-07-22T13:33:59;18.50;99.90
63966;DHT22;50151;52.030;5.350;2023-07-22T13:36:26;18.40;99.90
63966;DHT22;50151;52.030;5.350;2023-07-22T13:38:53;18.40;99.90
63966;DHT22;50151;52.030;5.350;2023-07-22T13:41:19;18.40;99.90
63966;DHT22;50151;52.030;5.350;2023-07-22T13:43:46;18.20;99.90
63966;DHT22;50151;52.030;5.350;2023-07-22T13:46:13;18.00;99.90
63966;DHT22;50151;52.030;5.350;2023-07-22T13:48:39;18.20;99.90
63966;DHT22;50151;52.030;5.350;2023-07-22T13:51:06;18.30;99.90
63966;DHT22;50151;52.030;5.350;2023-07-22T13:53:33;18.30;99.90
63966;DHT22;50151;52.030;5.350;2023-07-22T13:56:00;18.40;99.90
63966;DHT22;50151;52.030;5.350;2023-07-22T13:58:27;18.40;99.90
63966;DHT22;50151;52.030;5.350;2023-07-22T14:00:54;18.40;99.90
63966;DHT22;50151;52.030;5.350;2023-07-22T14:03:20;18.30;99.90
63966;DHT22;50151;52.030;5.350;2023-07-22T14:05:47;18.20;99.90
63966;DHT22;50151;52.030;5.350;2023-07-22T14:08:14;18.50;99.90
63966;DHT22;50151;52.030;5.350;2023-07-22T14:10:41;18.50;99.90
63966;DHT22;50151;52.030;5.350;2023-07-22T14:13:07;18.40;99.90
63966;DHT22;50151;52.030;5.350;2023-07-22T14:15:34;18.60;99.90
63966;DHT22;50151;52.030;5.350;2023-07-22T14:18:03;18.60;99.90
63966;DHT22;50151;52.030;5.350;2023-07-22T14:20:30;18.60;99.90
63966;DHT22;50151;52.030;5.350;2023-07-22T14:22:57;18.90;99.90
63966;DHT22;50151;52.030;5.350;2023-07-22T14:25:24;18.90;99.90
63966;DHT22;50151;52.030;5.350;2023-07-22T14:27:50;19.00;99.90
63966;DHT22;50151;52.030;5.350;2023-07-22T14:30:17;18.90;99.90
63966;DHT22;50151;52.030;5.350;2023-07-22T14:32:44;18.90;99.90
63966;DHT22;50151;52.030;5.350;2023-07-22T14:35:11;19.10;99.90
63966;DHT22;50151;52.030;5.350;2023-07-22T14:37:37;19.10;99.90
63966;DHT22;50151;52.030;5.350;2023-07-22T14:40:05;19.10;99.90
63966;DHT22;50151;52.030;5.350;2023-07-22T14:42:32;19.20;99.90
63966;DHT22;50151;52.030;5.350;2023-07-22T14:44:58;19.30;99.90
63966;DHT22;50151;52.030;5.350;2023-07-22T14:47:25;19.40;99.90
63966;DHT22;50151;52.030;5.350;2023-07-22T14:49:52;19.40;99.90
63966;DHT22;50151;52.030;5.350;2023-07-22T14:52:19;19.50;99.90
63966;DHT22;50151;52.030;5.350;2023-07-22T14:54:47;19.40;99.90
63966;DHT22;50151;52.030;5.350;2023-07-22T14:57:14;19.50;99.90
63966;DHT22;50151;52.030;5.350;2023-07-22T14:59:40;19.40;99.90
63966;DHT22;50151;52.030;5.350;2023-07-22T15:02:07;19.30;99.90
63966;DHT22;50151;52.030;5.350;2023-07-22T15:04:34;19.20;99.90
63966;DHT22;50151;52.030;5.350;2023-07-22T15:07:01;19.20;99.90
63966;DHT22;50151;52.030;5.350;2023-07-22T15:09:30;19.20;99.90
63966;DHT22;50151;52.030;5.350;2023-07-22T15:11:56;19.10;99.90
63966;DHT22;50151;52.030;5.350;2023-07-22T15:14:23;19.00;99.90
63966;DHT22;50151;52.030;5.350;2023-07-22T15:16:50;19.00;99.90
63966;DHT22;50151;52.030;5.350;2023-07-22T15:19:17;18.90;99.90
63966;DHT22;50151;52.030;5.350;2023-07-22T15:21:43;18.90;99.90
63966;DHT22;50151;52.030;5.350;2023-07-22T15:24:10;18.80;99.90
63966;DHT22;50151;52.030;5.350;2023-07-22T15:26:37;18.90;99.90
63966;DHT22;50151;52.030;5.350;2023-07-22T15:29:04;18.70;99.90
63966;DHT22;50151;52.030;5.350;2023-07-22T15:31:31;18.60;99.90
63966;DHT22;50151;52.030;5.350;2023-07-22T15:33:57;18.70;99.90
63966;DHT22;50151;52.030;5.350;2023-07-22T15:36:24;18.80;99.90
63966;DHT22;50151;52.030;5.350;2023-07-22T15:38:51;18.90;99.90
63966;DHT22;50151;52.030;5.350;2023-07-22T15:41:18;18.70;99.90